sensor_id;sensor_type;location;lat;lon;timestamp;P1;durP1;ratioP1;P2;durP2;ratioP2
43014;SDS011;28637;50.554;7.032;2023-04-26T00:01:25;3.13;;;1.95;;
43014;SDS011;28637;50.554;7.032;2023-04-26T00:06:26;8.03;;;2.13;;
43014;SDS011;28637;50.554;7.032;2023-04-26T00:11:27;5.38;;;1.85;;
43014;SDS011;28637;50.554;7.032;2023-04-26T00:16:29;4.13;;;1.70;;
43014;SDS011;28637;50.554;7.032;2023-04-26T00:21:29;4.47;;;1.73;;
43014;SDS011;28637;50.554;7.032;2023-04-26T00:26:30;3.13;;;1.70;;
43014;SDS011;28637;50.554;7.032;2023-04-26T00:31:33;4.28;;;1.70;;
43014;SDS011;28637;50.554;7.032;2023-04-26T00:36:33;4.33;;;1.77;;
43014;SDS011;28637;50.554;7.032;2023-04-26T00:41:34;4.68;;;1.98;;
43014;SDS011;28637;50.554;7.032;2023-04-26T00:46:35;6.83;;;2.50;;
43014;SDS011;28637;50.554;7.032;2023-04-26T00:51:36;3.08;;;1.92;;
43014;SDS011;28637;50.554;7.032;2023-04-26T00:56:37;3.22;;;1.85;;
43014;SDS011;28637;50.554;7.032;2023-04-26T01:01:39;6.32;;;1.80;;
43014;SDS011;28637;50.554;7.032;2023-04-26T01:06:41;5.78;;;2.13;;
43014;SDS011;28637;50.554;7.032;2023-04-26T01:11:42;7.07;;;2.50;;
43014;SDS011;28637;50.554;7.032;2023-04-26T01:16:43;3.53;;;2.00;;
43014;SDS011;28637;50.554;7.032;2023-04-26T01:21:46;3.95;;;1.73;;
43014;SDS011;28637;50.554;7.032;2023-04-26T01:26:47;3.37;;;1.70;;
43014;SDS011;28637;50.554;7.032;2023-04-26T01:31:47;4.95;;;1.95;;
43014;SDS011;28637;50.554;7.032;2023-04-26T01:36:48;7.07;;;2.40;;
43014;SDS011;28637;50.554;7.032;2023-04-26T01:41:49;3.57;;;1.73;;
43014;SDS011;28637;50.554;7.032;2023-04-26T01:46:49;3.45;;;1.90;;
43014;SDS011;28637;50.554;7.032;2023-04-26T01:51:50;4.23;;;1.80;;
43014;SDS011;28637;50.554;7.032;2023-04-26T01:56:51;3.80;;;1.97;;
43014;SDS011;28637;50.554;7.032;2023-04-26T02:01:51;4.10;;;1.73;;
43014;SDS011;28637;50.554;7.032;2023-04-26T02:06:52;7.45;;;2.08;;
43014;SDS011;28637;50.554;7.032;2023-04-26T02:11:52;3.53;;;2.10;;
43014;SDS011;28637;50.554;7.032;2023-04-26T02:16:53;6.68;;;2.65;;
43014;SDS011;28637;50.554;7.032;2023-04-26T02:21:54;4.07;;;2.20;;
43014;SDS011;28637;50.554;7.032;2023-04-26T02:26:56;7.28;;;3.03;;
43014;SDS011;28637;50.554;7.032;2023-04-26T02:32:02;9.55;;;2.10;;
43014;SDS011;28637;50.554;7.032;2023-04-26T02:37:04;6.50;;;2.03;;
43014;SDS011;28637;50.554;7.032;2023-04-26T02:42:10;6.23;;;2.47;;
43014;SDS011;28637;50.554;7.032;2023-04-26T02:47:13;6.63;;;2.25;;
43014;SDS011;28637;50.554;7.032;2023-04-26T02:57:14;4.22;;;2.15;;
43014;SDS011;28637;50.554;7.032;2023-04-26T03:02:15;10.88;;;2.65;;
43014;SDS011;28637;50.554;7.032;2023-04-26T03:07:15;3.37;;;2.33;;
43014;SDS011;28637;50.554;7.032;2023-04-26T03:12:16;5.33;;;2.03;;
43014;SDS011;28637;50.554;7.032;2023-04-26T03:17:17;4.60;;;2.20;;
43014;SDS011;28637;50.554;7.032;2023-04-26T03:22:17;7.63;;;2.30;;
43014;SDS011;28637;50.554;7.032;2023-04-26T03:27:18;4.32;;;2.20;;
43014;SDS011;28637;50.554;7.032;2023-04-26T03:32:18;6.63;;;2.20;;
43014;SDS011;28637;50.554;7.032;2023-04-26T03:37:19;5.27;;;2.53;;
43014;SDS011;28637;50.554;7.032;2023-04-26T03:42:20;6.20;;;2.53;;
43014;SDS011;28637;50.554;7.032;2023-04-26T03:47:20;6.47;;;2.28;;
43014;SDS011;28637;50.554;7.032;2023-04-26T03:52:21;7.53;;;2.53;;
43014;SDS011;28637;50.554;7.032;2023-04-26T03:57:22;6.80;;;2.30;;
43014;SDS011;28637;50.554;7.032;2023-04-26T04:02:22;4.68;;;2.00;;
43014;SDS011;28637;50.554;7.032;2023-04-26T04:07:23;5.00;;;2.03;;
43014;SDS011;28637;50.554;7.032;2023-04-26T04:12:24;4.80;;;2.67;;
43014;SDS011;28637;50.554;7.032;2023-04-26T04:17:25;11.25;;;2.85;;
43014;SDS011;28637;50.554;7.032;2023-04-26T04:22:25;5.55;;;2.08;;
43014;SDS011;28637;50.554;7.032;2023-04-26T04:27:26;5.23;;;2.30;;
43014;SDS011;28637;50.554;7.032;2023-04-26T04:32:26;4.35;;;2.55;;
43014;SDS011;28637;50.554;7.032;2023-04-26T04:37:28;7.45;;;2.70;;
43014;SDS011;28637;50.554;7.032;2023-04-26T04:42:28;6.35;;;2.80;;
43014;SDS011;28637;50.554;7.032;2023-04-26T04:47:29;4.95;;;2.47;;
43014;SDS011;28637;50.554;7.032;2023-04-26T04:52:30;4.13;;;2.43;;
43014;SDS011;28637;50.554;7.032;2023-04-26T04:57:32;8.15;;;2.58;;
43014;SDS011;28637;50.554;7.032;2023-04-26T05:02:32;5.33;;;2.20;;
43014;SDS011;28637;50.554;7.032;2023-04-26T05:07:33;6.30;;;2.50;;
43014;SDS011;28637;50.554;7.032;2023-04-26T05:12:34;9.55;;;2.90;;
43014;SDS011;28637;50.554;7.032;2023-04-26T05:17:35;10.07;;;2.60;;
43014;SDS011;28637;50.554;7.032;2023-04-26T05:22:36;5.38;;;2.45;;
43014;SDS011;28637;50.554;7.032;2023-04-26T05:27:38;6.40;;;2.50;;
43014;SDS011;28637;50.554;7.032;2023-04-26T05:32:39;4.43;;;2.57;;
43014;SDS011;28637;50.554;7.032;2023-04-26T05:37:40;5.63;;;2.20;;
43014;SDS011;28637;50.554;7.032;2023-04-26T05:42:41;4.82;;;2.60;;
43014;SDS011;28637;50.554;7.032;2023-04-26T05:47:41;6.35;;;3.03;;
43014;SDS011;28637;50.554;7.032;2023-04-26T05:52:42;5.10;;;2.47;;
43014;SDS011;28637;50.554;7.032;2023-04-26T05:57:42;6.80;;;3.42;;
43014;SDS011;28637;50.554;7.032;2023-04-26T06:02:43;10.68;;;2.88;;
43014;SDS011;28637;50.554;7.032;2023-04-26T06:07:45;5.38;;;2.90;;
43014;SDS011;28637;50.554;7.032;2023-04-26T06:12:45;7.80;;;2.55;;
43014;SDS011;28637;50.554;7.032;2023-04-26T06:17:46;5.53;;;2.70;;
43014;SDS011;28637;50.554;7.032;2023-04-26T06:22:47;9.90;;;3.20;;
43014;SDS011;28637;50.554;7.032;2023-04-26T06:27:47;7.20;;;2.90;;
43014;SDS011;28637;50.554;7.032;2023-04-26T06:32:48;7.82;;;3.00;;
43014;SDS011;28637;50.554;7.032;2023-04-26T06:37:49;8.18;;;2.90;;
43014;SDS011;28637;50.554;7.032;2023-04-26T06:42:50;7.87;;;3.33;;
43014;SDS011;28637;50.554;7.032;2023-04-26T06:47:50;6.00;;;3.40;;
43014;SDS011;28637;50.554;7.032;2023-04-26T06:52:52;16.47;;;3.80;;
43014;SDS011;28637;50.554;7.032;2023-04-26T06:57:52;11.10;;;4.10;;
43014;SDS011;28637;50.554;7.032;2023-04-26T07:02:53;11.00;;;4.43;;
43014;SDS011;28637;50.554;7.032;2023-04-26T07:07:53;10.52;;;4.38;;
43014;SDS011;28637;50.554;7.032;2023-04-26T07:12:54;13.68;;;5.00;;
43014;SDS011;28637;50.554;7.032;2023-04-26T07:17:55;13.47;;;4.90;;
43014;SDS011;28637;50.554;7.032;2023-04-26T07:22:56;11.05;;;4.80;;
43014;SDS011;28637;50.554;7.032;2023-04-26T07:27:56;12.07;;;5.00;;
43014;SDS011;28637;50.554;7.032;2023-04-26T07:32:57;11.48;;;4.72;;
43014;SDS011;28637;50.554;7.032;2023-04-26T07:37:57;8.97;;;4.87;;
43014;SDS011;28637;50.554;7.032;2023-04-26T07:42:58;11.43;;;5.10;;
43014;SDS011;28637;50.554;7.032;2023-04-26T07:47:59;9.87;;;4.87;;
43014;SDS011;28637;50.554;7.032;2023-04-26T07:52:59;10.40;;;4.40;;
43014;SDS011;28637;50.554;7.032;2023-04-26T07:58:00;8.38;;;4.22;;
43014;SDS011;28637;50.554;7.032;2023-04-26T08:03:01;10.30;;;4.33;;
43014;SDS011;28637;50.554;7.032;2023-04-26T08:08:02;12.50;;;5.60;;
43014;SDS011;28637;50.554;7.032;2023-04-26T08:13:03;14.68;;;5.82;;
43014;SDS011;28637;50.554;7.032;2023-04-26T08:18:03;14.10;;;6.03;;
43014;SDS011;28637;50.554;7.032;2023-04-26T08:23:04;14.50;;;6.63;;
43014;SDS011;28637;50.554;7.032;2023-04-26T08:28:05;13.65;;;6.82;;
43014;SDS011;28637;50.554;7.032;2023-04-26T08:33:10;11.25;;;6.30;;
43014;SDS011;28637;50.554;7.032;2023-04-26T08:38:11;11.85;;;6.03;;
43014;SDS011;28637;50.554;7.032;2023-04-26T08:43:11;13.57;;;5.70;;
43014;SDS011;28637;50.554;7.032;2023-04-26T08:48:15;11.80;;;6.18;;
43014;SDS011;28637;50.554;7.032;2023-04-26T08:53:17;14.57;;;6.28;;
43014;SDS011;28637;50.554;7.032;2023-04-26T08:58:17;15.23;;;6.03;;
43014;SDS011;28637;50.554;7.032;2023-04-26T09:03:18;14.23;;;6.13;;
43014;SDS011;28637;50.554;7.032;2023-04-26T09:08:25;10.20;;;5.95;;
43014;SDS011;28637;50.554;7.032;2023-04-26T09:13:27;13.35;;;5.82;;
43014;SDS011;28637;50.554;7.032;2023-04-26T09:18:29;11.00;;;6.07;;
43014;SDS011;28637;50.554;7.032;2023-04-26T09:23:32;12.18;;;6.32;;
43014;SDS011;28637;50.554;7.032;2023-04-26T09:28:34;10.82;;;5.72;;
43014;SDS011;28637;50.554;7.032;2023-04-26T09:33:35;11.53;;;5.50;;
43014;SDS011;28637;50.554;7.032;2023-04-26T09:38:40;10.63;;;5.50;;
43014;SDS011;28637;50.554;7.032;2023-04-26T09:43:41;10.30;;;5.40;;
43014;SDS011;28637;50.554;7.032;2023-04-26T09:48:42;11.37;;;5.30;;
43014;SDS011;28637;50.554;7.032;2023-04-26T09:53:46;9.37;;;5.40;;
43014;SDS011;28637;50.554;7.032;2023-04-26T10:03:58;10.88;;;5.30;;
43014;SDS011;28637;50.554;7.032;2023-04-26T10:09:00;7.57;;;5.15;;
43014;SDS011;28637;50.554;7.032;2023-04-26T10:14:03;9.77;;;4.85;;
43014;SDS011;28637;50.554;7.032;2023-04-26T10:19:05;8.60;;;4.80;;
43014;SDS011;28637;50.554;7.032;2023-04-26T10:24:06;10.23;;;4.77;;
43014;SDS011;28637;50.554;7.032;2023-04-26T10:29:09;10.50;;;4.57;;
43014;SDS011;28637;50.554;7.032;2023-04-26T10:34:21;5.83;;;4.60;;
43014;SDS011;28637;50.554;7.032;2023-04-26T10:39:22;7.10;;;4.05;;
43014;SDS011;28637;50.554;7.032;2023-04-26T10:44:39;8.40;;;4.05;;
43014;SDS011;28637;50.554;7.032;2023-04-26T10:49:44;7.30;;;4.07;;
43014;SDS011;28637;50.554;7.032;2023-04-26T10:54:49;9.75;;;3.97;;
43014;SDS011;28637;50.554;7.032;2023-04-26T11:10:32;9.20;;;3.85;;
43014;SDS011;28637;50.554;7.032;2023-04-26T11:15:32;8.70;;;4.20;;
43014;SDS011;28637;50.554;7.032;2023-04-26T11:20:34;8.65;;;4.28;;
43014;SDS011;28637;50.554;7.032;2023-04-26T11:25:35;8.73;;;4.03;;
43014;SDS011;28637;50.554;7.032;2023-04-26T11:30:39;9.10;;;5.50;;
43014;SDS011;28637;50.554;7.032;2023-04-26T11:35:39;10.43;;;5.03;;
43014;SDS011;28637;50.554;7.032;2023-04-26T11:40:40;7.17;;;3.83;;
43014;SDS011;28637;50.554;7.032;2023-04-26T11:45:41;6.40;;;3.60;;
43014;SDS011;28637;50.554;7.032;2023-04-26T11:50:42;5.77;;;3.80;;
43014;SDS011;28637;50.554;7.032;2023-04-26T11:55:43;4.93;;;3.27;;
43014;SDS011;28637;50.554;7.032;2023-04-26T12:00:59;10.03;;;3.50;;
43014;SDS011;28637;50.554;7.032;2023-04-26T12:06:01;7.13;;;3.83;;
43014;SDS011;28637;50.554;7.032;2023-04-26T12:11:01;7.83;;;3.60;;
43014;SDS011;28637;50.554;7.032;2023-04-26T12:16:06;7.23;;;3.50;;
43014;SDS011;28637;50.554;7.032;2023-04-26T12:21:08;5.00;;;3.28;;
43014;SDS011;28637;50.554;7.032;2023-04-26T12:26:08;5.00;;;3.40;;
43014;SDS011;28637;50.554;7.032;2023-04-26T12:31:11;6.28;;;3.25;;
43014;SDS011;28637;50.554;7.032;2023-04-26T12:36:12;8.35;;;3.40;;
43014;SDS011;28637;50.554;7.032;2023-04-26T12:41:13;5.30;;;2.97;;
43014;SDS011;28637;50.554;7.032;2023-04-26T12:46:13;4.80;;;2.90;;
43014;SDS011;28637;50.554;7.032;2023-04-26T12:51:14;7.23;;;3.10;;
43014;SDS011;28637;50.554;7.032;2023-04-26T12:56:15;6.30;;;3.03;;
43014;SDS011;28637;50.554;7.032;2023-04-26T13:01:16;5.68;;;3.22;;
43014;SDS011;28637;50.554;7.032;2023-04-26T13:06:16;6.80;;;3.20;;
43014;SDS011;28637;50.554;7.032;2023-04-26T13:11:17;7.50;;;3.60;;
43014;SDS011;28637;50.554;7.032;2023-04-26T13:16:18;5.90;;;2.97;;
43014;SDS011;28637;50.554;7.032;2023-04-26T13:21:18;4.27;;;2.93;;
43014;SDS011;28637;50.554;7.032;2023-04-26T13:26:19;6.50;;;2.73;;
43014;SDS011;28637;50.554;7.032;2023-04-26T13:31:20;4.63;;;2.90;;
43014;SDS011;28637;50.554;7.032;2023-04-26T13:36:21;5.13;;;2.90;;
43014;SDS011;28637;50.554;7.032;2023-04-26T13:41:21;5.50;;;2.93;;
43014;SDS011;28637;50.554;7.032;2023-04-26T13:46:22;5.35;;;2.90;;
43014;SDS011;28637;50.554;7.032;2023-04-26T13:51:23;8.60;;;2.90;;
43014;SDS011;28637;50.554;7.032;2023-04-26T13:56:24;3.80;;;2.80;;
43014;SDS011;28637;50.554;7.032;2023-04-26T14:01:24;4.10;;;3.13;;
43014;SDS011;28637;50.554;7.032;2023-04-26T14:06:26;5.18;;;2.50;;
43014;SDS011;28637;50.554;7.032;2023-04-26T14:16:28;7.20;;;2.90;;
43014;SDS011;28637;50.554;7.032;2023-04-26T14:21:28;4.73;;;2.60;;
43014;SDS011;28637;50.554;7.032;2023-04-26T14:26:30;6.55;;;2.70;;
43014;SDS011;28637;50.554;7.032;2023-04-26T14:31:32;9.45;;;4.60;;
43014;SDS011;28637;50.554;7.032;2023-04-26T14:36:33;7.93;;;3.27;;
43014;SDS011;28637;50.554;7.032;2023-04-26T14:41:33;5.97;;;2.77;;
43014;SDS011;28637;50.554;7.032;2023-04-26T14:46:34;8.07;;;3.37;;
43014;SDS011;28637;50.554;7.032;2023-04-26T14:51:36;4.93;;;2.60;;
43014;SDS011;28637;50.554;7.032;2023-04-26T14:56:36;8.50;;;2.77;;
43014;SDS011;28637;50.554;7.032;2023-04-26T15:01:37;5.90;;;2.70;;
43014;SDS011;28637;50.554;7.032;2023-04-26T15:06:37;5.80;;;2.47;;
43014;SDS011;28637;50.554;7.032;2023-04-26T15:11:38;6.93;;;2.60;;
43014;SDS011;28637;50.554;7.032;2023-04-26T15:16:39;5.57;;;3.00;;
43014;SDS011;28637;50.554;7.032;2023-04-26T15:21:39;5.17;;;2.53;;
43014;SDS011;28637;50.554;7.032;2023-04-26T15:26:40;5.30;;;2.70;;
43014;SDS011;28637;50.554;7.032;2023-04-26T15:31:41;3.93;;;2.27;;
43014;SDS011;28637;50.554;7.032;2023-04-26T15:36:41;5.70;;;2.53;;
43014;SDS011;28637;50.554;7.032;2023-04-26T15:41:42;5.90;;;2.60;;
43014;SDS011;28637;50.554;7.032;2023-04-26T15:46:44;6.57;;;2.83;;
43014;SDS011;28637;50.554;7.032;2023-04-26T15:51:44;4.73;;;3.00;;
43014;SDS011;28637;50.554;7.032;2023-04-26T15:56:45;7.63;;;3.20;;
43014;SDS011;28637;50.554;7.032;2023-04-26T16:01:46;8.13;;;3.13;;
43014;SDS011;28637;50.554;7.032;2023-04-26T16:06:46;7.57;;;3.50;;
43014;SDS011;28637;50.554;7.032;2023-04-26T16:11:47;7.90;;;3.50;;
43014;SDS011;28637;50.554;7.032;2023-04-26T16:16:47;6.97;;;3.67;;
43014;SDS011;28637;50.554;7.032;2023-04-26T16:21:48;6.40;;;3.30;;
43014;SDS011;28637;50.554;7.032;2023-04-26T16:26:49;6.20;;;3.33;;
43014;SDS011;28637;50.554;7.032;2023-04-26T16:31:50;6.00;;;3.30;;
43014;SDS011;28637;50.554;7.032;2023-04-26T16:36:51;8.10;;;4.15;;
43014;SDS011;28637;50.554;7.032;2023-04-26T16:41:52;6.30;;;3.80;;
43014;SDS011;28637;50.554;7.032;2023-04-26T16:46:53;6.65;;;3.72;;
43014;SDS011;28637;50.554;7.032;2023-04-26T16:51:53;7.70;;;4.43;;
43014;SDS011;28637;50.554;7.032;2023-04-26T16:56:57;8.18;;;3.92;;
43014;SDS011;28637;50.554;7.032;2023-04-26T17:01:58;6.03;;;3.63;;
43014;SDS011;28637;50.554;7.032;2023-04-26T17:06:58;11.37;;;3.97;;
43014;SDS011;28637;50.554;7.032;2023-04-26T17:11:59;8.17;;;3.50;;
43014;SDS011;28637;50.554;7.032;2023-04-26T17:22:02;17.08;;;9.25;;
43014;SDS011;28637;50.554;7.032;2023-04-26T17:27:02;9.50;;;4.43;;
43014;SDS011;28637;50.554;7.032;2023-04-26T17:32:03;8.30;;;3.70;;
43014;SDS011;28637;50.554;7.032;2023-04-26T17:37:05;10.60;;;6.78;;
43014;SDS011;28637;50.554;7.032;2023-04-26T17:42:06;9.40;;;4.00;;
43014;SDS011;28637;50.554;7.032;2023-04-26T17:47:06;8.13;;;3.53;;
43014;SDS011;28637;50.554;7.032;2023-04-26T17:52:07;5.70;;;3.70;;
43014;SDS011;28637;50.554;7.032;2023-04-26T17:57:07;10.20;;;6.50;;
43014;SDS011;28637;50.554;7.032;2023-04-26T18:02:08;6.43;;;3.53;;
43014;SDS011;28637;50.554;7.032;2023-04-26T18:07:09;6.47;;;3.50;;
43014;SDS011;28637;50.554;7.032;2023-04-26T18:12:11;12.35;;;4.20;;
43014;SDS011;28637;50.554;7.032;2023-04-26T18:17:12;6.40;;;3.60;;
43014;SDS011;28637;50.554;7.032;2023-04-26T18:22:14;9.60;;;3.83;;
43014;SDS011;28637;50.554;7.032;2023-04-26T18:27:14;7.20;;;3.73;;
43014;SDS011;28637;50.554;7.032;2023-04-26T18:32:15;8.10;;;4.00;;
43014;SDS011;28637;50.554;7.032;2023-04-26T18:37:15;12.43;;;4.60;;
43014;SDS011;28637;50.554;7.032;2023-04-26T18:42:17;13.73;;;5.10;;
43014;SDS011;28637;50.554;7.032;2023-04-26T18:47:17;13.53;;;5.27;;
43014;SDS011;28637;50.554;7.032;2023-04-26T18:52:18;16.10;;;6.13;;
43014;SDS011;28637;50.554;7.032;2023-04-26T18:57:18;9.03;;;4.60;;
43014;SDS011;28637;50.554;7.032;2023-04-26T19:02:21;6.97;;;3.42;;
43014;SDS011;28637;50.554;7.032;2023-04-26T19:07:22;7.57;;;3.50;;
43014;SDS011;28637;50.554;7.032;2023-04-26T19:12:22;6.67;;;3.40;;
43014;SDS011;28637;50.554;7.032;2023-04-26T19:17:23;6.05;;;3.60;;
43014;SDS011;28637;50.554;7.032;2023-04-26T19:22:24;6.83;;;3.87;;
43014;SDS011;28637;50.554;7.032;2023-04-26T19:27:25;5.63;;;3.50;;
43014;SDS011;28637;50.554;7.032;2023-04-26T19:32:25;10.32;;;3.50;;
43014;SDS011;28637;50.554;7.032;2023-04-26T19:37:26;6.25;;;3.15;;
43014;SDS011;28637;50.554;7.032;2023-04-26T19:42:27;4.47;;;3.22;;
43014;SDS011;28637;50.554;7.032;2023-04-26T19:47:27;5.07;;;3.28;;
43014;SDS011;28637;50.554;7.032;2023-04-26T19:52:28;31.30;;;10.82;;
43014;SDS011;28637;50.554;7.032;2023-04-26T19:57:28;30.58;;;9.95;;
43014;SDS011;28637;50.554;7.032;2023-04-26T20:02:29;24.00;;;9.70;;
43014;SDS011;28637;50.554;7.032;2023-04-26T20:07:30;12.35;;;6.03;;
43014;SDS011;28637;50.554;7.032;2023-04-26T20:12:31;13.65;;;7.22;;
43014;SDS011;28637;50.554;7.032;2023-04-26T20:17:32;30.00;;;13.30;;
43014;SDS011;28637;50.554;7.032;2023-04-26T20:22:33;16.30;;;8.60;;
43014;SDS011;28637;50.554;7.032;2023-04-26T20:27:33;13.03;;;7.53;;
43014;SDS011;28637;50.554;7.032;2023-04-26T20:32:34;9.40;;;4.70;;
43014;SDS011;28637;50.554;7.032;2023-04-26T20:37:35;7.00;;;4.95;;
43014;SDS011;28637;50.554;7.032;2023-04-26T20:42:35;8.60;;;3.85;;
43014;SDS011;28637;50.554;7.032;2023-04-26T20:47:36;7.37;;;4.07;;
43014;SDS011;28637;50.554;7.032;2023-04-26T20:52:37;8.83;;;5.40;;
43014;SDS011;28637;50.554;7.032;2023-04-26T20:57:38;7.82;;;4.20;;
43014;SDS011;28637;50.554;7.032;2023-04-26T21:02:38;4.78;;;3.83;;
43014;SDS011;28637;50.554;7.032;2023-04-26T21:07:39;4.63;;;3.58;;
43014;SDS011;28637;50.554;7.032;2023-04-26T21:12:40;6.22;;;3.65;;
43014;SDS011;28637;50.554;7.032;2023-04-26T21:17:40;9.27;;;3.90;;
43014;SDS011;28637;50.554;7.032;2023-04-26T21:22:41;5.20;;;3.45;;
43014;SDS011;28637;50.554;7.032;2023-04-26T21:27:42;4.68;;;3.42;;
43014;SDS011;28637;50.554;7.032;2023-04-26T21:32:42;5.30;;;3.33;;
43014;SDS011;28637;50.554;7.032;2023-04-26T21:37:43;8.95;;;3.65;;
43014;SDS011;28637;50.554;7.032;2023-04-26T21:42:43;6.18;;;3.28;;
43014;SDS011;28637;50.554;7.032;2023-04-26T21:47:45;8.20;;;3.30;;
43014;SDS011;28637;50.554;7.032;2023-04-26T21:52:45;6.70;;;3.63;;
43014;SDS011;28637;50.554;7.032;2023-04-26T21:57:46;5.25;;;3.80;;
43014;SDS011;28637;50.554;7.032;2023-04-26T22:02:47;7.13;;;3.88;;
43014;SDS011;28637;50.554;7.032;2023-04-26T22:07:47;6.03;;;4.07;;
43014;SDS011;28637;50.554;7.032;2023-04-26T22:12:48;5.72;;;3.95;;
43014;SDS011;28637;50.554;7.032;2023-04-26T22:17:48;8.00;;;4.10;;
43014;SDS011;28637;50.554;7.032;2023-04-26T22:22:49;5.78;;;3.78;;
43014;SDS011;28637;50.554;7.032;2023-04-26T22:27:50;9.30;;;4.20;;
43014;SDS011;28637;50.554;7.032;2023-04-26T22:32:52;7.90;;;4.53;;
43014;SDS011;28637;50.554;7.032;2023-04-26T22:37:54;5.53;;;4.30;;
43014;SDS011;28637;50.554;7.032;2023-04-26T22:42:55;7.30;;;4.43;;
43014;SDS011;28637;50.554;7.032;2023-04-26T22:47:55;6.55;;;4.35;;
43014;SDS011;28637;50.554;7.032;2023-04-26T22:52:56;7.63;;;4.38;;
43014;SDS011;28637;50.554;7.032;2023-04-26T22:57:56;21.05;;;4.55;;
43014;SDS011;28637;50.554;7.032;2023-04-26T23:02:57;4.90;;;4.07;;
43014;SDS011;28637;50.554;7.032;2023-04-26T23:07:58;12.35;;;4.38;;
43014;SDS011;28637;50.554;7.032;2023-04-26T23:12:58;8.18;;;4.43;;
43014;SDS011;28637;50.554;7.032;2023-04-26T23:17:59;8.75;;;4.97;;
43014;SDS011;28637;50.554;7.032;2023-04-26T23:23:00;8.38;;;4.68;;
43014;SDS011;28637;50.554;7.032;2023-04-26T23:28:00;7.78;;;4.90;;
43014;SDS011;28637;50.554;7.032;2023-04-26T23:33:01;6.82;;;4.22;;
43014;SDS011;28637;50.554;7.032;2023-04-26T23:38:02;7.00;;;4.65;;
43014;SDS011;28637;50.554;7.032;2023-04-26T23:43:02;8.52;;;4.50;;
43014;SDS011;28637;50.554;7.032;2023-04-26T23:48:05;6.28;;;4.40;;
43014;SDS011;28637;50.554;7.032;2023-04-26T23:53:05;6.05;;;4.35;;
43014;SDS011;28637;50.554;7.032;2023-04-26T23:58:06;6.80;;;4.40;;
